sensor_id;sensor_type;location;lat;lon;timestamp;P1;durP1;ratioP1;P2;durP2;ratioP2
79036;SDS011;68434;59.896;30.474;2023-05-07T00:00:11;10.05;;;4.63;;
79036;SDS011;68434;59.896;30.474;2023-05-07T00:02:41;5.72;;;3.80;;
79036;SDS011;68434;59.896;30.474;2023-05-07T00:05:10;8.13;;;3.90;;
79036;SDS011;68434;59.896;30.474;2023-05-07T00:07:38;5.93;;;3.53;;
79036;SDS011;68434;59.896;30.474;2023-05-07T00:10:08;6.32;;;3.47;;
79036;SDS011;68434;59.896;30.474;2023-05-07T00:12:38;7.50;;;3.70;;
79036;SDS011;68434;59.896;30.474;2023-05-07T00:15:07;7.95;;;3.97;;
79036;SDS011;68434;59.896;30.474;2023-05-07T00:17:35;5.72;;;3.47;;
79036;SDS011;68434;59.896;30.474;2023-05-07T00:20:04;7.32;;;3.42;;
79036;SDS011;68434;59.896;30.474;2023-05-07T00:24:59;6.05;;;3.60;;
79036;SDS011;68434;59.896;30.474;2023-05-07T00:27:34;7.38;;;3.80;;
79036;SDS011;68434;59.896;30.474;2023-05-07T00:30:02;6.70;;;3.53;;
79036;SDS011;68434;59.896;30.474;2023-05-07T00:32:34;7.95;;;3.83;;
79036;SDS011;68434;59.896;30.474;2023-05-07T00:35:02;9.35;;;3.60;;
79036;SDS011;68434;59.896;30.474;2023-05-07T00:37:30;5.18;;;3.38;;
79036;SDS011;68434;59.896;30.474;2023-05-07T00:39:58;5.97;;;3.28;;
79036;SDS011;68434;59.896;30.474;2023-05-07T00:42:29;6.50;;;3.78;;
79036;SDS011;68434;59.896;30.474;2023-05-07T00:44:59;4.93;;;3.03;;
79036;SDS011;68434;59.896;30.474;2023-05-07T00:47:31;6.70;;;3.58;;
79036;SDS011;68434;59.896;30.474;2023-05-07T00:49:58;7.57;;;3.90;;
79036;SDS011;68434;59.896;30.474;2023-05-07T00:52:26;6.10;;;3.42;;
79036;SDS011;68434;59.896;30.474;2023-05-07T00:54:55;6.78;;;4.13;;
79036;SDS011;68434;59.896;30.474;2023-05-07T00:57:23;8.20;;;3.72;;
79036;SDS011;68434;59.896;30.474;2023-05-07T00:59:52;4.95;;;3.20;;
79036;SDS011;68434;59.896;30.474;2023-05-07T01:02:21;6.40;;;3.50;;
79036;SDS011;68434;59.896;30.474;2023-05-07T01:07:16;6.00;;;4.10;;
79036;SDS011;68434;59.896;30.474;2023-05-07T01:09:43;5.28;;;3.58;;
79036;SDS011;68434;59.896;30.474;2023-05-07T01:12:11;4.53;;;3.20;;
79036;SDS011;68434;59.896;30.474;2023-05-07T01:14:39;7.18;;;3.80;;
79036;SDS011;68434;59.896;30.474;2023-05-07T01:17:07;5.80;;;3.70;;
79036;SDS011;68434;59.896;30.474;2023-05-07T01:19:36;6.10;;;4.05;;
79036;SDS011;68434;59.896;30.474;2023-05-07T01:22:07;8.57;;;3.95;;
79036;SDS011;68434;59.896;30.474;2023-05-07T01:24:46;5.72;;;3.35;;
79036;SDS011;68434;59.896;30.474;2023-05-07T01:27:16;6.97;;;3.80;;
79036;SDS011;68434;59.896;30.474;2023-05-07T01:29:43;6.03;;;3.55;;
79036;SDS011;68434;59.896;30.474;2023-05-07T01:32:11;8.23;;;4.28;;
79036;SDS011;68434;59.896;30.474;2023-05-07T01:34:40;7.13;;;3.92;;
79036;SDS011;68434;59.896;30.474;2023-05-07T01:37:10;5.93;;;4.10;;
79036;SDS011;68434;59.896;30.474;2023-05-07T01:39:38;9.35;;;4.13;;
79036;SDS011;68434;59.896;30.474;2023-05-07T01:42:08;5.32;;;3.70;;
79036;SDS011;68434;59.896;30.474;2023-05-07T01:44:37;5.90;;;3.70;;
79036;SDS011;68434;59.896;30.474;2023-05-07T01:47:04;5.78;;;3.75;;
79036;SDS011;68434;59.896;30.474;2023-05-07T01:49:33;5.53;;;3.35;;
79036;SDS011;68434;59.896;30.474;2023-05-07T01:52:01;5.75;;;3.30;;
79036;SDS011;68434;59.896;30.474;2023-05-07T01:54:29;6.22;;;3.03;;
79036;SDS011;68434;59.896;30.474;2023-05-07T01:56:58;6.32;;;2.92;;
79036;SDS011;68434;59.896;30.474;2023-05-07T01:59:27;6.35;;;3.53;;
79036;SDS011;68434;59.896;30.474;2023-05-07T02:01:54;5.95;;;2.72;;
79036;SDS011;68434;59.896;30.474;2023-05-07T02:04:22;5.13;;;3.08;;
79036;SDS011;68434;59.896;30.474;2023-05-07T02:06:51;6.93;;;3.50;;
79036;SDS011;68434;59.896;30.474;2023-05-07T02:09:19;7.85;;;3.42;;
79036;SDS011;68434;59.896;30.474;2023-05-07T02:11:49;6.38;;;2.60;;
79036;SDS011;68434;59.896;30.474;2023-05-07T02:14:18;4.20;;;2.72;;
79036;SDS011;68434;59.896;30.474;2023-05-07T02:16:48;4.93;;;2.85;;
79036;SDS011;68434;59.896;30.474;2023-05-07T02:19:16;4.85;;;2.72;;
79036;SDS011;68434;59.896;30.474;2023-05-07T02:21:43;7.43;;;3.25;;
79036;SDS011;68434;59.896;30.474;2023-05-07T02:24:11;4.85;;;2.70;;
79036;SDS011;68434;59.896;30.474;2023-05-07T02:26:39;5.80;;;3.20;;
79036;SDS011;68434;59.896;30.474;2023-05-07T02:29:07;5.45;;;3.17;;
79036;SDS011;68434;59.896;30.474;2023-05-07T02:31:36;5.32;;;2.78;;
79036;SDS011;68434;59.896;30.474;2023-05-07T02:34:05;6.03;;;2.80;;
79036;SDS011;68434;59.896;30.474;2023-05-07T02:39:05;5.40;;;3.15;;
79036;SDS011;68434;59.896;30.474;2023-05-07T02:41:33;7.07;;;3.10;;
79036;SDS011;68434;59.896;30.474;2023-05-07T02:44:01;3.90;;;2.72;;
79036;SDS011;68434;59.896;30.474;2023-05-07T02:46:28;6.63;;;3.42;;
79036;SDS011;68434;59.896;30.474;2023-05-07T02:49:01;6.35;;;3.90;;
79036;SDS011;68434;59.896;30.474;2023-05-07T02:51:30;6.18;;;3.67;;
79036;SDS011;68434;59.896;30.474;2023-05-07T02:54:01;5.78;;;3.60;;
79036;SDS011;68434;59.896;30.474;2023-05-07T02:56:30;5.68;;;3.00;;
79036;SDS011;68434;59.896;30.474;2023-05-07T02:58:57;5.85;;;3.75;;
79036;SDS011;68434;59.896;30.474;2023-05-07T03:01:29;4.75;;;3.30;;
79036;SDS011;68434;59.896;30.474;2023-05-07T03:04:01;5.28;;;3.00;;
79036;SDS011;68434;59.896;30.474;2023-05-07T03:06:30;6.55;;;3.15;;
79036;SDS011;68434;59.896;30.474;2023-05-07T03:08:59;5.18;;;2.95;;
79036;SDS011;68434;59.896;30.474;2023-05-07T03:11:27;4.32;;;2.85;;
79036;SDS011;68434;59.896;30.474;2023-05-07T03:13:55;4.60;;;2.83;;
79036;SDS011;68434;59.896;30.474;2023-05-07T03:16:23;7.60;;;3.30;;
79036;SDS011;68434;59.896;30.474;2023-05-07T03:18:50;5.13;;;2.95;;
79036;SDS011;68434;59.896;30.474;2023-05-07T03:21:18;5.10;;;2.90;;
79036;SDS011;68434;59.896;30.474;2023-05-07T03:23:47;4.00;;;2.72;;
79036;SDS011;68434;59.896;30.474;2023-05-07T03:26:14;4.28;;;2.97;;
79036;SDS011;68434;59.896;30.474;2023-05-07T03:28:44;5.60;;;3.40;;
79036;SDS011;68434;59.896;30.474;2023-05-07T03:31:14;5.57;;;3.03;;
79036;SDS011;68434;59.896;30.474;2023-05-07T03:33:49;4.43;;;2.58;;
79036;SDS011;68434;59.896;30.474;2023-05-07T03:36:19;5.50;;;3.10;;
79036;SDS011;68434;59.896;30.474;2023-05-07T03:38:48;5.22;;;2.80;;
79036;SDS011;68434;59.896;30.474;2023-05-07T03:41:19;6.25;;;2.90;;
79036;SDS011;68434;59.896;30.474;2023-05-07T03:43:47;9.50;;;3.00;;
79036;SDS011;68434;59.896;30.474;2023-05-07T03:46:15;4.63;;;2.53;;
79036;SDS011;68434;59.896;30.474;2023-05-07T03:48:43;5.45;;;2.53;;
79036;SDS011;68434;59.896;30.474;2023-05-07T03:51:13;10.45;;;2.70;;
79036;SDS011;68434;59.896;30.474;2023-05-07T03:53:43;6.00;;;2.60;;
79036;SDS011;68434;59.896;30.474;2023-05-07T03:56:12;4.35;;;2.90;;
79036;SDS011;68434;59.896;30.474;2023-05-07T03:58:41;4.13;;;2.47;;
79036;SDS011;68434;59.896;30.474;2023-05-07T04:01:10;6.50;;;2.72;;
79036;SDS011;68434;59.896;30.474;2023-05-07T04:03:38;4.63;;;2.70;;
79036;SDS011;68434;59.896;30.474;2023-05-07T04:06:06;6.05;;;3.08;;
79036;SDS011;68434;59.896;30.474;2023-05-07T04:11:03;4.82;;;2.63;;
79036;SDS011;68434;59.896;30.474;2023-05-07T04:13:34;6.38;;;3.20;;
79036;SDS011;68434;59.896;30.474;2023-05-07T04:16:04;6.63;;;3.15;;
79036;SDS011;68434;59.896;30.474;2023-05-07T04:18:37;6.07;;;3.00;;
79036;SDS011;68434;59.896;30.474;2023-05-07T04:21:05;4.70;;;2.40;;
79036;SDS011;68434;59.896;30.474;2023-05-07T04:23:40;5.05;;;2.88;;
79036;SDS011;68434;59.896;30.474;2023-05-07T04:26:10;5.55;;;3.03;;
79036;SDS011;68434;59.896;30.474;2023-05-07T04:28:43;6.03;;;2.78;;
79036;SDS011;68434;59.896;30.474;2023-05-07T04:31:11;4.47;;;2.58;;
79036;SDS011;68434;59.896;30.474;2023-05-07T04:36:11;4.68;;;2.60;;
79036;SDS011;68434;59.896;30.474;2023-05-07T04:38:46;4.30;;;2.72;;
79036;SDS011;68434;59.896;30.474;2023-05-07T04:41:15;5.45;;;2.40;;
79036;SDS011;68434;59.896;30.474;2023-05-07T04:43:45;3.70;;;2.30;;
79036;SDS011;68434;59.896;30.474;2023-05-07T04:46:14;4.03;;;2.38;;
79036;SDS011;68434;59.896;30.474;2023-05-07T04:48:42;4.05;;;2.33;;
79036;SDS011;68434;59.896;30.474;2023-05-07T04:51:10;5.18;;;2.50;;
79036;SDS011;68434;59.896;30.474;2023-05-07T04:53:39;6.88;;;2.53;;
79036;SDS011;68434;59.896;30.474;2023-05-07T04:56:09;4.38;;;2.30;;
79036;SDS011;68434;59.896;30.474;2023-05-07T04:58:40;4.10;;;2.10;;
79036;SDS011;68434;59.896;30.474;2023-05-07T05:01:12;4.38;;;2.50;;
79036;SDS011;68434;59.896;30.474;2023-05-07T05:03:41;4.43;;;2.30;;
79036;SDS011;68434;59.896;30.474;2023-05-07T05:06:09;3.55;;;2.10;;
79036;SDS011;68434;59.896;30.474;2023-05-07T05:08:37;5.22;;;2.42;;
79036;SDS011;68434;59.896;30.474;2023-05-07T05:11:05;3.25;;;1.73;;
79036;SDS011;68434;59.896;30.474;2023-05-07T05:13:51;3.63;;;1.98;;
79036;SDS011;68434;59.896;30.474;2023-05-07T05:18:49;6.07;;;1.90;;
79036;SDS011;68434;59.896;30.474;2023-05-07T05:21:18;3.45;;;1.90;;
79036;SDS011;68434;59.896;30.474;2023-05-07T05:23:49;2.67;;;1.70;;
79036;SDS011;68434;59.896;30.474;2023-05-07T05:26:35;4.13;;;2.15;;
79036;SDS011;68434;59.896;30.474;2023-05-07T05:31:51;2.47;;;1.67;;
79036;SDS011;68434;59.896;30.474;2023-05-07T05:34:18;5.47;;;2.10;;
79036;SDS011;68434;59.896;30.474;2023-05-07T05:36:48;3.90;;;1.98;;
79036;SDS011;68434;59.896;30.474;2023-05-07T05:39:15;5.00;;;2.00;;
79036;SDS011;68434;59.896;30.474;2023-05-07T05:41:44;2.83;;;1.60;;
79036;SDS011;68434;59.896;30.474;2023-05-07T05:44:13;3.08;;;1.83;;
79036;SDS011;68434;59.896;30.474;2023-05-07T05:46:42;5.07;;;1.90;;
79036;SDS011;68434;59.896;30.474;2023-05-07T05:49:11;3.30;;;2.05;;
79036;SDS011;68434;59.896;30.474;2023-05-07T05:51:39;2.58;;;1.77;;
79036;SDS011;68434;59.896;30.474;2023-05-07T05:54:07;2.85;;;1.95;;
79036;SDS011;68434;59.896;30.474;2023-05-07T05:56:34;3.97;;;1.80;;
79036;SDS011;68434;59.896;30.474;2023-05-07T05:59:04;6.07;;;2.00;;
79036;SDS011;68434;59.896;30.474;2023-05-07T06:01:33;4.45;;;1.88;;
79036;SDS011;68434;59.896;30.474;2023-05-07T06:04:03;3.78;;;1.70;;
79036;SDS011;68434;59.896;30.474;2023-05-07T06:06:33;3.38;;;1.80;;
79036;SDS011;68434;59.896;30.474;2023-05-07T06:09:02;6.55;;;1.60;;
79036;SDS011;68434;59.896;30.474;2023-05-07T06:11:36;3.95;;;1.70;;
79036;SDS011;68434;59.896;30.474;2023-05-07T06:16:33;4.90;;;1.90;;
79036;SDS011;68434;59.896;30.474;2023-05-07T06:19:02;3.72;;;1.83;;
79036;SDS011;68434;59.896;30.474;2023-05-07T06:21:30;2.72;;;1.60;;
79036;SDS011;68434;59.896;30.474;2023-05-07T06:23:59;2.97;;;1.60;;
79036;SDS011;68434;59.896;30.474;2023-05-07T06:26:27;3.90;;;1.75;;
79036;SDS011;68434;59.896;30.474;2023-05-07T06:28:55;7.20;;;3.97;;
79036;SDS011;68434;59.896;30.474;2023-05-07T06:31:28;4.57;;;2.10;;
79036;SDS011;68434;59.896;30.474;2023-05-07T06:34:07;4.22;;;2.00;;
79036;SDS011;68434;59.896;30.474;2023-05-07T06:36:37;3.30;;;2.05;;
79036;SDS011;68434;59.896;30.474;2023-05-07T06:39:21;3.25;;;1.80;;
79036;SDS011;68434;59.896;30.474;2023-05-07T06:41:51;2.83;;;1.77;;
79036;SDS011;68434;59.896;30.474;2023-05-07T06:44:26;2.42;;;1.70;;
79036;SDS011;68434;59.896;30.474;2023-05-07T06:47:09;3.00;;;1.90;;
79036;SDS011;68434;59.896;30.474;2023-05-07T06:49:38;4.50;;;1.92;;
79036;SDS011;68434;59.896;30.474;2023-05-07T06:52:06;4.38;;;2.35;;
79036;SDS011;68434;59.896;30.474;2023-05-07T06:54:36;3.33;;;1.83;;
79036;SDS011;68434;59.896;30.474;2023-05-07T06:57:04;4.07;;;1.75;;
79036;SDS011;68434;59.896;30.474;2023-05-07T06:59:31;8.32;;;4.50;;
79036;SDS011;68434;59.896;30.474;2023-05-07T07:02:00;3.15;;;1.80;;
79036;SDS011;68434;59.896;30.474;2023-05-07T07:04:27;2.75;;;1.70;;
79036;SDS011;68434;59.896;30.474;2023-05-07T07:07:03;3.10;;;1.83;;
79036;SDS011;68434;59.896;30.474;2023-05-07T07:09:31;3.63;;;1.90;;
79036;SDS011;68434;59.896;30.474;2023-05-07T07:12:02;3.28;;;2.08;;
79036;SDS011;68434;59.896;30.474;2023-05-07T07:14:30;5.20;;;2.30;;
79036;SDS011;68434;59.896;30.474;2023-05-07T07:16:58;4.57;;;2.75;;
79036;SDS011;68434;59.896;30.474;2023-05-07T07:19:29;6.40;;;2.70;;
79036;SDS011;68434;59.896;30.474;2023-05-07T07:21:57;7.28;;;2.63;;
79036;SDS011;68434;59.896;30.474;2023-05-07T07:24:25;7.30;;;2.80;;
79036;SDS011;68434;59.896;30.474;2023-05-07T07:26:57;3.70;;;2.10;;
79036;SDS011;68434;59.896;30.474;2023-05-07T07:29:27;3.03;;;1.95;;
79036;SDS011;68434;59.896;30.474;2023-05-07T07:31:55;4.78;;;2.67;;
79036;SDS011;68434;59.896;30.474;2023-05-07T07:34:23;2.78;;;1.90;;
79036;SDS011;68434;59.896;30.474;2023-05-07T07:36:53;3.83;;;2.17;;
79036;SDS011;68434;59.896;30.474;2023-05-07T07:39:20;3.15;;;2.03;;
79036;SDS011;68434;59.896;30.474;2023-05-07T07:41:51;5.50;;;2.13;;
79036;SDS011;68434;59.896;30.474;2023-05-07T07:44:20;6.40;;;2.05;;
79036;SDS011;68434;59.896;30.474;2023-05-07T07:46:54;3.65;;;2.03;;
79036;SDS011;68434;59.896;30.474;2023-05-07T07:49:24;3.90;;;1.70;;
79036;SDS011;68434;59.896;30.474;2023-05-07T07:51:52;4.75;;;1.70;;
79036;SDS011;68434;59.896;30.474;2023-05-07T07:54:20;4.68;;;2.10;;
79036;SDS011;68434;59.896;30.474;2023-05-07T07:56:48;2.88;;;1.75;;
79036;SDS011;68434;59.896;30.474;2023-05-07T07:59:15;4.00;;;1.85;;
79036;SDS011;68434;59.896;30.474;2023-05-07T08:01:46;3.40;;;1.80;;
79036;SDS011;68434;59.896;30.474;2023-05-07T08:04:18;4.82;;;1.75;;
79036;SDS011;68434;59.896;30.474;2023-05-07T08:06:45;2.83;;;1.60;;
79036;SDS011;68434;59.896;30.474;2023-05-07T08:09:14;2.50;;;1.70;;
79036;SDS011;68434;59.896;30.474;2023-05-07T08:11:44;3.88;;;1.70;;
79036;SDS011;68434;59.896;30.474;2023-05-07T08:14:13;4.07;;;1.63;;
79036;SDS011;68434;59.896;30.474;2023-05-07T08:16:46;2.45;;;1.40;;
79036;SDS011;68434;59.896;30.474;2023-05-07T08:19:14;3.40;;;1.67;;
79036;SDS011;68434;59.896;30.474;2023-05-07T08:21:45;3.42;;;1.52;;
79036;SDS011;68434;59.896;30.474;2023-05-07T08:24:14;3.75;;;1.75;;
79036;SDS011;68434;59.896;30.474;2023-05-07T08:26:43;4.55;;;1.70;;
79036;SDS011;68434;59.896;30.474;2023-05-07T08:31:38;3.85;;;1.80;;
79036;SDS011;68434;59.896;30.474;2023-05-07T08:34:06;3.20;;;1.48;;
79036;SDS011;68434;59.896;30.474;2023-05-07T08:36:37;3.33;;;1.85;;
79036;SDS011;68434;59.896;30.474;2023-05-07T08:39:09;3.45;;;1.67;;
79036;SDS011;68434;59.896;30.474;2023-05-07T08:41:38;3.30;;;1.90;;
79036;SDS011;68434;59.896;30.474;2023-05-07T08:44:11;4.30;;;2.10;;
79036;SDS011;68434;59.896;30.474;2023-05-07T08:46:46;4.38;;;1.88;;
79036;SDS011;68434;59.896;30.474;2023-05-07T08:49:17;4.97;;;1.88;;
79036;SDS011;68434;59.896;30.474;2023-05-07T08:51:45;3.83;;;2.20;;
79036;SDS011;68434;59.896;30.474;2023-05-07T08:54:16;7.40;;;1.63;;
79036;SDS011;68434;59.896;30.474;2023-05-07T08:56:45;5.68;;;1.83;;
79036;SDS011;68434;59.896;30.474;2023-05-07T08:59:13;3.92;;;1.90;;
79036;SDS011;68434;59.896;30.474;2023-05-07T09:01:42;3.03;;;1.65;;
79036;SDS011;68434;59.896;30.474;2023-05-07T09:04:10;3.33;;;1.50;;
79036;SDS011;68434;59.896;30.474;2023-05-07T09:06:40;3.00;;;1.75;;
79036;SDS011;68434;59.896;30.474;2023-05-07T09:09:14;3.95;;;1.70;;
79036;SDS011;68434;59.896;30.474;2023-05-07T09:11:48;3.03;;;1.60;;
79036;SDS011;68434;59.896;30.474;2023-05-07T09:14:26;4.72;;;1.55;;
79036;SDS011;68434;59.896;30.474;2023-05-07T09:16:54;3.47;;;1.50;;
79036;SDS011;68434;59.896;30.474;2023-05-07T09:19:22;2.17;;;1.33;;
79036;SDS011;68434;59.896;30.474;2023-05-07T09:21:57;6.15;;;1.52;;
79036;SDS011;68434;59.896;30.474;2023-05-07T09:24:33;5.53;;;1.67;;
79036;SDS011;68434;59.896;30.474;2023-05-07T09:27:06;4.47;;;1.70;;
79036;SDS011;68434;59.896;30.474;2023-05-07T09:29:38;1.52;;;0.90;;
79036;SDS011;68434;59.896;30.474;2023-05-07T09:32:07;4.00;;;1.30;;
79036;SDS011;68434;59.896;30.474;2023-05-07T09:37:05;1.83;;;1.00;;
79036;SDS011;68434;59.896;30.474;2023-05-07T09:39:39;4.38;;;1.35;;
79036;SDS011;68434;59.896;30.474;2023-05-07T09:42:10;2.95;;;1.27;;
79036;SDS011;68434;59.896;30.474;2023-05-07T09:44:40;4.43;;;1.38;;
79036;SDS011;68434;59.896;30.474;2023-05-07T09:47:15;4.05;;;1.10;;
79036;SDS011;68434;59.896;30.474;2023-05-07T09:49:50;3.63;;;1.30;;
79036;SDS011;68434;59.896;30.474;2023-05-07T09:52:24;2.08;;;1.20;;
79036;SDS011;68434;59.896;30.474;2023-05-07T09:55:04;3.92;;;1.38;;
79036;SDS011;68434;59.896;30.474;2023-05-07T09:57:35;6.45;;;1.45;;
79036;SDS011;68434;59.896;30.474;2023-05-07T10:00:07;3.15;;;1.25;;
79036;SDS011;68434;59.896;30.474;2023-05-07T10:02:49;3.85;;;1.30;;
79036;SDS011;68434;59.896;30.474;2023-05-07T10:05:27;3.03;;;1.70;;
79036;SDS011;68434;59.896;30.474;2023-05-07T10:07:57;3.33;;;1.80;;
79036;SDS011;68434;59.896;30.474;2023-05-07T10:10:26;3.35;;;1.50;;
79036;SDS011;68434;59.896;30.474;2023-05-07T10:12:58;4.00;;;1.70;;
79036;SDS011;68434;59.896;30.474;2023-05-07T10:15:32;3.45;;;1.50;;
79036;SDS011;68434;59.896;30.474;2023-05-07T10:18:02;3.05;;;1.50;;
79036;SDS011;68434;59.896;30.474;2023-05-07T10:22:59;7.28;;;3.05;;
79036;SDS011;68434;59.896;30.474;2023-05-07T10:25:39;4.63;;;2.30;;
79036;SDS011;68434;59.896;30.474;2023-05-07T10:28:18;1.70;;;1.20;;
79036;SDS011;68434;59.896;30.474;2023-05-07T10:30:53;2.17;;;1.33;;
79036;SDS011;68434;59.896;30.474;2023-05-07T10:33:42;4.63;;;2.55;;
79036;SDS011;68434;59.896;30.474;2023-05-07T10:36:13;2.95;;;1.13;;
79036;SDS011;68434;59.896;30.474;2023-05-07T10:38:41;3.55;;;1.80;;
79036;SDS011;68434;59.896;30.474;2023-05-07T10:41:09;3.47;;;1.38;;
79036;SDS011;68434;59.896;30.474;2023-05-07T10:43:43;5.07;;;2.63;;
79036;SDS011;68434;59.896;30.474;2023-05-07T10:46:38;3.80;;;1.70;;
79036;SDS011;68434;59.896;30.474;2023-05-07T10:49:12;2.58;;;1.50;;
79036;SDS011;68434;59.896;30.474;2023-05-07T10:51:45;3.22;;;1.50;;
79036;SDS011;68434;59.896;30.474;2023-05-07T10:54:46;2.83;;;1.48;;
79036;SDS011;68434;59.896;30.474;2023-05-07T10:57:35;3.80;;;1.52;;
79036;SDS011;68434;59.896;30.474;2023-05-07T11:03:20;11.30;;;3.15;;
79036;SDS011;68434;59.896;30.474;2023-05-07T11:08:58;3.22;;;1.88;;
79036;SDS011;68434;59.896;30.474;2023-05-07T11:11:45;10.25;;;5.65;;
79036;SDS011;68434;59.896;30.474;2023-05-07T11:14:43;3.53;;;1.63;;
79036;SDS011;68434;59.896;30.474;2023-05-07T11:17:21;4.75;;;2.10;;
79036;SDS011;68434;59.896;30.474;2023-05-07T11:19:59;3.67;;;1.85;;
79036;SDS011;68434;59.896;30.474;2023-05-07T11:22:37;2.88;;;1.60;;
79036;SDS011;68434;59.896;30.474;2023-05-07T11:25:32;3.47;;;1.52;;
79036;SDS011;68434;59.896;30.474;2023-05-07T11:30:40;2.25;;;1.52;;
79036;SDS011;68434;59.896;30.474;2023-05-07T11:33:12;2.55;;;1.27;;
79036;SDS011;68434;59.896;30.474;2023-05-07T11:35:45;4.63;;;1.60;;
79036;SDS011;68434;59.896;30.474;2023-05-07T11:38:16;4.60;;;1.65;;
79036;SDS011;68434;59.896;30.474;2023-05-07T11:40:49;4.43;;;1.63;;
79036;SDS011;68434;59.896;30.474;2023-05-07T11:43:17;4.22;;;1.98;;
79036;SDS011;68434;59.896;30.474;2023-05-07T11:45:45;3.45;;;1.65;;
79036;SDS011;68434;59.896;30.474;2023-05-07T11:48:14;3.83;;;1.48;;
79036;SDS011;68434;59.896;30.474;2023-05-07T11:50:50;5.45;;;1.58;;
79036;SDS011;68434;59.896;30.474;2023-05-07T11:53:18;2.30;;;1.30;;
79036;SDS011;68434;59.896;30.474;2023-05-07T11:55:52;3.63;;;1.60;;
79036;SDS011;68434;59.896;30.474;2023-05-07T11:58:20;4.82;;;2.10;;
79036;SDS011;68434;59.896;30.474;2023-05-07T12:00:49;6.13;;;1.65;;
79036;SDS011;68434;59.896;30.474;2023-05-07T12:03:18;4.22;;;1.55;;
79036;SDS011;68434;59.896;30.474;2023-05-07T12:05:46;4.05;;;2.15;;
79036;SDS011;68434;59.896;30.474;2023-05-07T12:08:17;8.10;;;2.38;;
79036;SDS011;68434;59.896;30.474;2023-05-07T12:10:47;2.70;;;1.55;;
79036;SDS011;68434;59.896;30.474;2023-05-07T12:13:19;3.13;;;1.65;;
79036;SDS011;68434;59.896;30.474;2023-05-07T12:15:52;1.83;;;1.25;;
79036;SDS011;68434;59.896;30.474;2023-05-07T12:18:22;3.72;;;1.60;;
79036;SDS011;68434;59.896;30.474;2023-05-07T12:20:51;2.00;;;1.30;;
79036;SDS011;68434;59.896;30.474;2023-05-07T12:23:21;5.63;;;2.00;;
79036;SDS011;68434;59.896;30.474;2023-05-07T12:25:49;1.55;;;1.08;;
79036;SDS011;68434;59.896;30.474;2023-05-07T12:28:17;4.32;;;1.70;;
79036;SDS011;68434;59.896;30.474;2023-05-07T12:30:48;2.92;;;1.50;;
79036;SDS011;68434;59.896;30.474;2023-05-07T12:33:17;3.42;;;1.60;;
79036;SDS011;68434;59.896;30.474;2023-05-07T12:35:52;3.20;;;1.50;;
79036;SDS011;68434;59.896;30.474;2023-05-07T12:38:22;2.08;;;1.50;;
79036;SDS011;68434;59.896;30.474;2023-05-07T12:40:50;3.55;;;1.70;;
79036;SDS011;68434;59.896;30.474;2023-05-07T12:43:24;2.10;;;1.25;;
79036;SDS011;68434;59.896;30.474;2023-05-07T12:45:53;3.15;;;1.88;;
79036;SDS011;68434;59.896;30.474;2023-05-07T12:48:23;2.65;;;1.42;;
79036;SDS011;68434;59.896;30.474;2023-05-07T12:50:56;6.95;;;2.25;;
79036;SDS011;68434;59.896;30.474;2023-05-07T12:53:25;3.13;;;1.50;;
79036;SDS011;68434;59.896;30.474;2023-05-07T12:55:54;3.53;;;1.55;;
79036;SDS011;68434;59.896;30.474;2023-05-07T12:58:26;4.28;;;1.60;;
79036;SDS011;68434;59.896;30.474;2023-05-07T13:00:56;3.92;;;1.75;;
79036;SDS011;68434;59.896;30.474;2023-05-07T13:03:32;3.28;;;1.40;;
79036;SDS011;68434;59.896;30.474;2023-05-07T13:06:06;3.22;;;1.75;;
79036;SDS011;68434;59.896;30.474;2023-05-07T13:08:38;2.40;;;1.45;;
79036;SDS011;68434;59.896;30.474;2023-05-07T13:11:09;2.88;;;1.35;;
79036;SDS011;68434;59.896;30.474;2023-05-07T13:13:39;8.93;;;2.33;;
79036;SDS011;68434;59.896;30.474;2023-05-07T13:16:09;6.55;;;2.15;;
79036;SDS011;68434;59.896;30.474;2023-05-07T13:18:41;4.93;;;2.05;;
79036;SDS011;68434;59.896;30.474;2023-05-07T13:21:12;3.17;;;1.83;;
79036;SDS011;68434;59.896;30.474;2023-05-07T13:23:39;4.35;;;1.45;;
79036;SDS011;68434;59.896;30.474;2023-05-07T13:26:07;3.50;;;1.48;;
79036;SDS011;68434;59.896;30.474;2023-05-07T13:28:35;3.63;;;2.00;;
79036;SDS011;68434;59.896;30.474;2023-05-07T13:31:03;4.55;;;2.40;;
79036;SDS011;68434;59.896;30.474;2023-05-07T13:33:31;2.75;;;1.48;;
79036;SDS011;68434;59.896;30.474;2023-05-07T13:35:59;4.43;;;2.03;;
79036;SDS011;68434;59.896;30.474;2023-05-07T13:38:31;2.92;;;1.55;;
79036;SDS011;68434;59.896;30.474;2023-05-07T13:40:58;3.67;;;2.10;;
79036;SDS011;68434;59.896;30.474;2023-05-07T13:43:27;3.10;;;1.60;;
79036;SDS011;68434;59.896;30.474;2023-05-07T13:45:58;2.42;;;1.70;;
79036;SDS011;68434;59.896;30.474;2023-05-07T13:48:30;3.45;;;1.45;;
79036;SDS011;68434;59.896;30.474;2023-05-07T13:50:58;3.80;;;2.17;;
79036;SDS011;68434;59.896;30.474;2023-05-07T13:53:26;3.15;;;1.67;;
79036;SDS011;68434;59.896;30.474;2023-05-07T13:55:57;2.83;;;1.65;;
79036;SDS011;68434;59.896;30.474;2023-05-07T13:58:24;2.30;;;1.45;;
79036;SDS011;68434;59.896;30.474;2023-05-07T14:00:52;4.03;;;1.50;;
79036;SDS011;68434;59.896;30.474;2023-05-07T14:03:20;4.85;;;1.30;;
79036;SDS011;68434;59.896;30.474;2023-05-07T14:05:48;3.92;;;1.33;;
79036;SDS011;68434;59.896;30.474;2023-05-07T14:08:16;3.75;;;1.38;;
79036;SDS011;68434;59.896;30.474;2023-05-07T14:10:45;2.70;;;1.58;;
79036;SDS011;68434;59.896;30.474;2023-05-07T14:13:14;3.28;;;1.60;;
79036;SDS011;68434;59.896;30.474;2023-05-07T14:15:46;2.45;;;1.40;;
79036;SDS011;68434;59.896;30.474;2023-05-07T14:18:14;5.05;;;1.45;;
79036;SDS011;68434;59.896;30.474;2023-05-07T14:20:43;3.30;;;1.55;;
79036;SDS011;68434;59.896;30.474;2023-05-07T14:23:18;6.22;;;1.70;;
79036;SDS011;68434;59.896;30.474;2023-05-07T14:25:51;3.70;;;1.80;;
79036;SDS011;68434;59.896;30.474;2023-05-07T14:28:20;4.00;;;1.50;;
79036;SDS011;68434;59.896;30.474;2023-05-07T14:30:48;9.13;;;2.20;;
79036;SDS011;68434;59.896;30.474;2023-05-07T14:33:16;5.53;;;2.00;;
79036;SDS011;68434;59.896;30.474;2023-05-07T14:35:44;4.65;;;2.17;;
79036;SDS011;68434;59.896;30.474;2023-05-07T14:38:14;2.60;;;1.88;;
79036;SDS011;68434;59.896;30.474;2023-05-07T14:40:42;7.45;;;1.70;;
79036;SDS011;68434;59.896;30.474;2023-05-07T14:43:10;2.55;;;1.60;;
79036;SDS011;68434;59.896;30.474;2023-05-07T14:45:42;4.18;;;1.77;;
79036;SDS011;68434;59.896;30.474;2023-05-07T14:48:17;3.85;;;1.60;;
79036;SDS011;68434;59.896;30.474;2023-05-07T14:50:46;2.95;;;1.48;;
79036;SDS011;68434;59.896;30.474;2023-05-07T14:53:14;4.38;;;1.58;;
79036;SDS011;68434;59.896;30.474;2023-05-07T14:55:43;3.95;;;1.92;;
79036;SDS011;68434;59.896;30.474;2023-05-07T14:58:10;4.00;;;1.90;;
79036;SDS011;68434;59.896;30.474;2023-05-07T15:00:40;4.40;;;1.77;;
79036;SDS011;68434;59.896;30.474;2023-05-07T15:03:09;6.28;;;1.80;;
79036;SDS011;68434;59.896;30.474;2023-05-07T15:05:42;5.35;;;2.15;;
79036;SDS011;68434;59.896;30.474;2023-05-07T15:08:13;9.10;;;2.45;;
79036;SDS011;68434;59.896;30.474;2023-05-07T15:10:44;4.10;;;2.03;;
79036;SDS011;68434;59.896;30.474;2023-05-07T15:13:12;3.42;;;1.80;;
79036;SDS011;68434;59.896;30.474;2023-05-07T15:15:41;3.53;;;1.95;;
79036;SDS011;68434;59.896;30.474;2023-05-07T15:18:10;4.95;;;1.70;;
79036;SDS011;68434;59.896;30.474;2023-05-07T15:20:42;4.30;;;1.70;;
79036;SDS011;68434;59.896;30.474;2023-05-07T15:23:20;5.68;;;1.90;;
79036;SDS011;68434;59.896;30.474;2023-05-07T15:25:49;6.00;;;1.80;;
79036;SDS011;68434;59.896;30.474;2023-05-07T15:28:16;4.70;;;1.80;;